地図

経路データ

SID SEASON NUMBER BASIN SUBBASIN NAME ISO_TIME NATURE LAT LON WMO_WIND WMO_PRES WMO_AGENCY TRACK_TYPE DIST2LAND LANDFALL IFLAG USA_AGENCY USA_ATCF_ID USA_LAT USA_LON USA_RECORD USA_STATUS USA_WIND USA_PRES USA_SSHS USA_R34_NE USA_R34_SE USA_R34_SW USA_R34_NW USA_R50_NE USA_R50_SE USA_R50_SW USA_R50_NW USA_R64_NE USA_R64_SE USA_R64_SW USA_R64_NW USA_POCI USA_ROCI USA_RMW USA_EYE TOKYO_LAT TOKYO_LON TOKYO_GRADE TOKYO_WIND TOKYO_PRES TOKYO_R50_DIR TOKYO_R50_LONG TOKYO_R50_SHORT TOKYO_R30_DIR TOKYO_R30_LONG TOKYO_R30_SHORT TOKYO_LAND CMA_LAT CMA_LON CMA_CAT CMA_WIND CMA_PRES HKO_LAT HKO_LON HKO_CAT HKO_WIND HKO_PRES NEWDELHI_LAT NEWDELHI_LON NEWDELHI_GRADE NEWDELHI_WIND NEWDELHI_PRES NEWDELHI_CI NEWDELHI_DP NEWDELHI_POCI REUNION_LAT REUNION_LON REUNION_TYPE REUNION_WIND REUNION_PRES REUNION_TNUM REUNION_CI REUNION_RMW REUNION_R34_NE REUNION_R34_SE REUNION_R34_SW REUNION_R34_NW REUNION_R50_NE REUNION_R50_SE REUNION_R50_SW REUNION_R50_NW REUNION_R64_NE REUNION_R64_SE REUNION_R64_SW REUNION_R64_NW BOM_LAT BOM_LON BOM_TYPE BOM_WIND BOM_PRES BOM_TNUM BOM_CI BOM_RMW BOM_R34_NE BOM_R34_SE BOM_R34_SW BOM_R34_NW BOM_R50_NE BOM_R50_SE BOM_R50_SW BOM_R50_NW BOM_R64_NE BOM_R64_SE BOM_R64_SW BOM_R64_NW BOM_ROCI BOM_POCI BOM_EYE BOM_POS_METHOD BOM_PRES_METHOD NADI_LAT NADI_LON NADI_CAT NADI_WIND NADI_PRES WELLINGTON_LAT WELLINGTON_LON WELLINGTON_WIND WELLINGTON_PRES DS824_LAT DS824_LON DS824_STAGE DS824_WIND DS824_PRES TD9636_LAT TD9636_LON TD9636_STAGE TD9636_WIND TD9636_PRES TD9635_LAT TD9635_LON TD9635_WIND TD9635_PRES TD9635_ROCI NEUMANN_LAT NEUMANN_LON NEUMANN_CLASS NEUMANN_WIND NEUMANN_PRES MLC_LAT MLC_LON MLC_CLASS MLC_WIND MLC_PRES USA_GUST BOM_GUST BOM_GUST_PER REUNION_GUST REUNION_GUST_PER USA_SEAHGT USA_SEARAD_NE USA_SEARAD_SE USA_SEARAD_SW USA_SEARAD_NW STORM_SPEED STORM_DIR
1923217N11144 1923 46 WP MM NOT_NAMED 1923-08-04 22:00:00 NR 11.0000 144.000 main 1495 1495 __________O___ -1 11.0000 144.000 2 8 293
1923217N11144 1923 46 WP MM NOT_NAMED 1923-08-05 00:00:00 NR 11.1003 143.754 main 1511 1513 __________P___ -1 11.1003 143.754 2 8 293
1923217N11144 1923 46 WP MM NOT_NAMED 1923-08-05 03:00:00 NR 11.2505 143.390 main 1542 1542 __________P___ -1 11.2505 143.390 2 8 293
1923217N11144 1923 46 WP MM NOT_NAMED 1923-08-05 06:00:00 NR 11.4004 143.037 main 1550 1546 __________P___ -1 11.4004 143.037 2 7 294
1923217N11144 1923 46 WP MM NOT_NAMED 1923-08-05 09:00:00 NR 11.5501 142.705 main 1560 1557 __________P___ -1 11.5501 142.705 2 7 295
1923217N11144 1923 46 WP MM NOT_NAMED 1923-08-05 10:00:00 NR 11.6000 142.600 main 1557 1553 __________O___ -1 11.6000 142.600 2 7 297
1923217N11144 1923 46 WP MM NOT_NAMED 1923-08-05 12:00:00 NR 11.7003 142.399 main 1560 1557 __________P___ -1 11.7003 142.399 2 7 298
1923217N11144 1923 46 WP MM NOT_NAMED 1923-08-05 15:00:00 NR 11.8568 142.110 main 1572 1569 __________P___ -1 11.8568 142.110 2 7 300
1923217N11144 1923 46 WP MM NOT_NAMED 1923-08-05 18:00:00 NR 12.0292 141.820 main 1574 1574 __________P___ -1 12.0292 141.820 2 7 302
1923217N11144 1923 46 WP MM NOT_NAMED 1923-08-05 21:00:00 NR 12.2269 141.511 main 1582 1582 __________P___ -1 12.2269 141.511 2 7 303
1923217N11144 1923 46 WP MM NOT_NAMED 1923-08-05 22:00:00 NR 12.3000 141.400 main 1588 1584 __________O___ -1 12.3000 141.400 2 9 305
1923217N11144 1923 46 WP MM NOT_NAMED 1923-08-06 00:00:00 NR 12.4684 141.154 main 1601 1593 __________P___ -1 12.4684 141.154 2 9 306
1923217N11144 1923 46 WP MM NOT_NAMED 1923-08-06 03:00:00 NR 12.7464 140.759 main 1606 1593 __________P___ -1 12.7464 140.759 2 10 306
1923217N11144 1923 46 WP MM NOT_NAMED 1923-08-06 06:00:00 NR 13.0354 140.347 main 1593 1554 __________P___ -1 13.0354 140.347 2 10 305
1923217N11144 1923 46 WP MM NOT_NAMED 1923-08-06 09:00:00 NR 13.3135 139.935 main 1554 1545 __________P___ -1 13.3135 139.935 2 10 304
1923217N11144 1923 46 WP MM NOT_NAMED 1923-08-06 10:00:00 NR 13.4000 139.800 main 1545 1517 __________O___ -1 13.4000 139.800 2 9 302
1923217N11144 1923 46 WP MM NOT_NAMED 1923-08-06 12:00:00 NR 13.5530 139.539 main 1517 1487 __________P___ -1 13.5530 139.539 2 9 300
1923217N11144 1923 46 WP MM NOT_NAMED 1923-08-06 15:00:00 NR 13.7637 139.153 main 1489 1448 __________P___ -1 13.7637 139.153 2 8 299
1923217N11144 1923 46 WP MM NOT_NAMED 1923-08-06 18:00:00 NR 13.9574 138.779 main 1451 1411 __________P___ -1 13.9574 138.779 2 8 298
1923217N11144 1923 46 WP MM NOT_NAMED 1923-08-06 21:00:00 NR 14.1403 138.417 main 1411 1403 __________P___ -1 14.1403 138.417 2 8 298
1923217N11144 1923 46 WP MM NOT_NAMED 1923-08-06 22:00:00 NR 14.2000 138.300 main 1403 1384 __________O___ -1 14.2000 138.300 2 8 298
1923217N11144 1923 46 WP MM NOT_NAMED 1923-08-07 00:00:00 NR 14.3195 138.074 main 1384 1345 __________P___ -1 14.3195 138.074 2 7 299
1923217N11144 1923 46 WP MM NOT_NAMED 1923-08-07 03:00:00 NR 14.4927 137.749 main 1345 1317 __________P___ -1 14.4927 137.749 2 7 299
1923217N11144 1923 46 WP MM NOT_NAMED 1923-08-07 06:00:00 NR 14.6639 137.430 main 1317 1288 __________P___ -1 14.6639 137.430 2 7 299
1923217N11144 1923 46 WP MM NOT_NAMED 1923-08-07 09:00:00 NR 14.8394 137.109 main 1288 1279 __________P___ -1 14.8394 137.109 2 7 300
1923217N11144 1923 46 WP MM NOT_NAMED 1923-08-07 10:00:00 NR 14.9000 137.000 main 1279 1261 __________O___ -1 14.9000 137.000 2 7 299
1923217N11144 1923 46 WP MM NOT_NAMED 1923-08-07 12:00:00 NR 15.0142 136.788 main 1261 1235 __________P___ -1 15.0142 136.788 2 7 299
1923217N11144 1923 46 WP MM NOT_NAMED 1923-08-07 15:00:00 NR 15.1917 136.463 main 1235 1199 __________P___ -1 15.1917 136.463 2 7 300
1923217N11144 1923 46 WP MM NOT_NAMED 1923-08-07 18:00:00 NR 15.3878 136.119 main 1199 1165 __________P___ -1 15.3878 136.119 2 8 301
1923217N11144 1923 46 WP MM NOT_NAMED 1923-08-07 21:00:00 NR 15.6151 135.738 main 1165 1158 __________P___ -1 15.6151 135.738 2 9 302
1923217N11144 1923 46 WP MM NOT_NAMED 1923-08-07 22:00:00 NR 15.7000 135.600 main 1158 1135 __________O___ -1 15.7000 135.600 2 10 303
1923217N11144 1923 46 WP MM NOT_NAMED 1923-08-08 00:00:00 NR 15.8882 135.298 main 1135 1098 __________P___ -1 15.8882 135.298 2 11 303
1923217N11144 1923 46 WP MM NOT_NAMED 1923-08-08 03:00:00 NR 16.2021 134.808 main 1098 1063 __________P___ -1 16.2021 134.808 2 12 304
1923217N11144 1923 46 WP MM NOT_NAMED 1923-08-08 06:00:00 NR 16.5397 134.291 main 1063 1031 __________P___ -1 16.5397 134.291 2 12 305
1923217N11144 1923 46 WP MM NOT_NAMED 1923-08-08 09:00:00 NR 16.8855 133.771 main 1036 1023 __________P___ -1 16.8855 133.771 2 12 305
1923217N11144 1923 46 WP MM NOT_NAMED 1923-08-08 10:00:00 NR 17.0000 133.600 main 1023 1008 __________O___ -1 17.0000 133.600 2 12 305
1923217N11144 1923 46 WP MM NOT_NAMED 1923-08-08 12:00:00 NR 17.2191 133.272 main 1008 983 __________P___ -1 17.2191 133.272 2 11 305
1923217N11144 1923 46 WP MM NOT_NAMED 1923-08-08 15:00:00 NR 17.5479 132.787 main 983 956 __________P___ -1 17.5479 132.787 2 11 306
1923217N11144 1923 46 WP MM NOT_NAMED 1923-08-08 18:00:00 NR 17.8743 132.312 main 956 929 __________P___ -1 17.8743 132.312 2 11 306
1923217N11144 1923 46 WP MM NOT_NAMED 1923-08-08 21:00:00 NR 18.1949 131.850 main 934 922 __________P___ -1 18.1949 131.850 2 11 306
1923217N11144 1923 46 WP MM NOT_NAMED 1923-08-08 22:00:00 NR 18.3000 131.700 main 922 907 __________O___ -1 18.3000 131.700 2 10 306
1923217N11144 1923 46 WP MM NOT_NAMED 1923-08-09 00:00:00 NR 18.4895 131.415 main 907 885 __________P___ -1 18.4895 131.415 2 10 305
1923217N11144 1923 46 WP MM NOT_NAMED 1923-08-09 03:00:00 NR 18.7673 131.000 main 892 873 __________P___ -1 18.7673 131.000 2 10 306
1923217N11144 1923 46 WP MM NOT_NAMED 1923-08-09 06:00:00 NR 19.0571 130.585 main 877 837 __________P___ -1 19.0571 130.585 2 10 307
1923217N11144 1923 46 WP MM NOT_NAMED 1923-08-09 09:00:00 NR 19.3808 130.152 main 838 819 __________P___ -1 19.3808 130.152 2 11 309
1923217N11144 1923 46 WP MM NOT_NAMED 1923-08-09 10:00:00 NR 19.5000 130.000 main 819 791 __________O___ -1 19.5000 130.000 2 12 311
1923217N11144 1923 46 WP MM NOT_NAMED 1923-08-09 12:00:00 NR 19.7870 129.655 main 793 741 __________P___ -1 19.7870 129.655 2 14 312
1923217N11144 1923 46 WP MM NOT_NAMED 1923-08-09 15:00:00 NR 20.2558 129.113 main 744 708 __________P___ -1 20.2558 129.113 2 14 313
1923217N11144 1923 46 WP MM NOT_NAMED 1923-08-09 18:00:00 NR 20.7313 128.568 main 708 677 __________P___ -1 20.7313 128.568 2 13 313
1923217N11144 1923 46 WP MM NOT_NAMED 1923-08-09 21:00:00 NR 21.1696 128.057 main 682 669 __________P___ -1 21.1696 128.057 2 13 312
1923217N11144 1923 46 WP MM NOT_NAMED 1923-08-09 22:00:00 NR 21.3000 127.900 main 669 653 __________O___ -1 21.3000 127.900 4 10 310
1923217N11144 1923 46 WP MM NOT_NAMED 1923-08-10 00:00:00 NR 21.5090 127.631 main 653 623 __________P___ -1 21.5090 127.631 4 9 309
1923217N11144 1923 46 WP MM NOT_NAMED 1923-08-10 03:00:00 NR 21.7725 127.272 main 623 577 __________P___ -1 21.7725 127.272 4 8 308
1923217N11144 1923 46 WP MM NOT_NAMED 1923-08-10 06:00:00 NR 22.0011 126.942 main 577 542 __________P___ -1 22.0011 126.942 4 8 306
1923217N11144 1923 46 WP MM NOT_NAMED 1923-08-10 09:00:00 NR 22.2228 126.614 main 542 529 __________P___ -1 22.2228 126.614 4 8 306
1923217N11144 1923 46 WP MM NOT_NAMED 1923-08-10 10:00:00 NR 22.3000 126.500 main 529 501 __________O___ -1 22.3000 126.500 4 8 307
1923217N11144 1923 46 WP MM NOT_NAMED 1923-08-10 12:00:00 NR 22.4694 126.257 main 501 454 __________P___ -1 22.4694 126.257 4 9 307
1923217N11144 1923 46 WP MM NOT_NAMED 1923-08-10 15:00:00 NR 22.7298 125.881 main 454 402 __________P___ -1 22.7298 125.881 4 9 307
1923217N11144 1923 46 WP MM NOT_NAMED 1923-08-10 18:00:00 NR 23.0034 125.482 main 402 351 __________P___ -1 23.0034 125.482 4 10 307
1923217N11144 1923 46 WP MM NOT_NAMED 1923-08-10 21:00:00 NR 23.2968 125.052 main 351 328 __________P___ -1 23.2968 125.052 4 10 307
1923217N11144 1923 46 WP MM NOT_NAMED 1923-08-10 22:00:00 NR 23.4000 124.900 main 328 291 __________O___ -1 23.4000 124.900 4 11 305
1923217N11144 1923 46 WP MM NOT_NAMED 1923-08-11 00:00:00 NR 23.6085 124.573 main 291 232 __________P___ -1 23.6085 124.573 4 11 305
1923217N11144 1923 46 WP MM NOT_NAMED 1923-08-11 03:00:00 NR 23.9399 124.051 main 232 163 __________P___ -1 23.9399 124.051 4 12 305
1923217N11144 1923 46 WP MM NOT_NAMED 1923-08-11 06:00:00 NR 24.2936 123.511 main 163 106 __________P___ -1 24.2936 123.511 4 12 307
1923217N11144 1923 46 WP MM NOT_NAMED 1923-08-11 09:00:00 NR 24.6696 122.974 main 106 83 __________P___ -1 24.6696 122.974 4 12 308
1923217N11144 1923 46 WP MM NOT_NAMED 1923-08-11 10:00:00 NR 24.8000 122.800 main 83 50 __________O___ -1 24.8000 122.800 4 12 311
1923217N11144 1923 46 WP MM NOT_NAMED 1923-08-11 12:00:00 NR 25.0681 122.462 main 51 34 __________P___ -1 25.0681 122.462 4 12 313
1923217N11144 1923 46 WP MM NOT_NAMED 1923-08-11 15:00:00 NR 25.4856 121.977 main 52 45 __________P___ -1 25.4856 121.977 4 12 315
1923217N11144 1923 46 WP MM NOT_NAMED 1923-08-11 18:00:00 NR 25.9162 121.510 main 78 78 __________P___ -1 25.9162 121.510 4 12 316
1923217N11144 1923 46 WP MM NOT_NAMED 1923-08-11 21:00:00 NR 26.3537 121.052 main 101 80 __________P___ -1 26.3537 121.052 4 12 317
1923217N11144 1923 46 WP MM NOT_NAMED 1923-08-11 22:00:00 NR 26.5000 120.900 main 80 __________O___ -1 26.5000 120.900 4 12 316

デジタル台風データ・検索

IBTrACS Databaseについて

本データベースは、米国NOAAが公開する1842年以降の世界の熱帯低気圧のベストトラックデータアーカイブInternational Best Track Archive for Climate Stewardship (IBTrACS)を、ウェブで閲覧しやすい形式に変換したものです。

最終更新日:2021-10-25